Bennett, Iowa
Current Conditions -  °F | °C
As of 11:15 PM on Friday 24 Oct 2014 (Local Time) from KDVN Reporting Station
Moderate Fog Moderate Fog  
Wind Chill: 53°   Ceiling: 400
Heat Index: 53°   Visibility: 0.25mi
Dew Point: 52°   Wind: 5mph
Humidity: 96%   Direction: 270°W
Pressure: 29.95"   Gusts: NA
Location:  41.74°N, 90.97°W
Report Text: KDVN 250415Z AUTO 27004KT 1/4SM FG VV004 12/11 A2995 RMK AO2 T01170111 TSNO
Loading
Personal Weather Stations






























Interactive Weather Map
Tropical Storm Tracking
New forecast layout! Learn more

10-Day Weather Forecast

Advertisements
Track Severe Weather on mobile